Time;durP1;ratioP1;P1;durP2;ratioP2;P2;SDS_P1;SDS_P2;PMS_P1;PMS_P2;Temp;Humidity;BMP_temperature;BMP_pressure;BME280_temperature;BME280_humidity;BME280_pressure;Samples;Min_cycle;Max_cycle;Signal;HPM_P1;HPM_P2
2022/08/04 00:00:05;;;;;;;3.70;3.40;;;23.50;49.80;;;;;;624945;230;26566;-67
2022/08/04 00:02:53;;;;;;;5.57;3.85;;;23.50;50.00;;;;;;625811;230;26567;-66
2022/08/04 00:05:28;;;;;;;4.25;3.72;;;23.40;49.90;;;;;;622081;230;26616;-67
2022/08/04 00:07:58;;;;;;;3.22;2.90;;;23.40;49.90;;;;;;625488;230;26835;-67
2022/08/04 00:10:25;;;;;;;3.15;2.95;;;23.40;50.00;;;;;;625121;230;26777;-67
2022/08/04 00:12:52;;;;;;;3.08;2.87;;;23.40;50.00;;;;;;625462;230;26553;-67
2022/08/04 00:15:19;;;;;;;3.95;3.22;;;23.40;50.00;;;;;;625531;230;26566;-67
2022/08/04 00:17:53;;;;;;;3.20;3.00;;;23.40;50.00;;;;;;625592;230;26594;-67
2022/08/04 00:20:20;;;;;;;2.90;2.70;;;23.30;49.90;;;;;;625564;230;26595;-67
2022/08/04 00:22:48;;;;;;;3.90;3.20;;;23.40;49.80;;;;;;626406;227;26577;-66
2022/08/04 00:25:16;;;;;;;4.65;3.20;;;23.40;49.80;;;;;;626729;226;26569;-66
2022/08/04 00:27:44;;;;;;;5.20;3.33;;;23.30;49.70;;;;;;626552;229;26508;-65
2022/08/04 00:30:11;;;;;;;3.60;3.30;;;23.40;49.70;;;;;;626312;230;26536;-66
2022/08/04 00:32:38;;;;;;;4.18;3.75;;;23.30;49.70;;;;;;626044;229;26848;-65
2022/08/04 00:35:08;;;;;;;4.72;3.25;;;23.30;49.90;;;;;;626189;230;26579;-65
2022/08/04 00:37:34;;;;;;;3.70;3.30;;;23.30;50.10;;;;;;626109;226;26624;-65
2022/08/04 00:40:01;;;;;;;3.55;3.25;;;23.20;50.30;;;;;;626096;230;26837;-66
2022/08/04 00:42:33;;;;;;;3.45;3.15;;;23.20;50.30;;;;;;625659;230;26546;-65
2022/08/04 00:45:07;;;;;;;3.35;3.05;;;23.20;50.30;;;;;;625719;230;26727;-66
2022/08/04 00:47:53;;;;;;;3.10;2.90;;;23.20;50.40;;;;;;625005;230;26583;-66
2022/08/04 00:50:27;;;;;;;3.00;2.80;;;23.10;50.50;;;;;;625049;230;26550;-66
2022/08/04 00:52:55;;;;;;;3.20;3.00;;;23.20;50.30;;;;;;625061;230;26611;-65
2022/08/04 00:55:29;;;;;;;3.62;2.95;;;23.10;50.20;;;;;;625080;230;26530;-66
2022/08/04 00:58:10;;;;;;;3.10;2.80;;;23.10;50.20;;;;;;625302;230;26822;-66
2022/08/04 01:00:39;;;;;;;2.80;2.60;;;23.10;50.40;;;;;;625490;230;26590;-66
2022/08/04 01:03:17;;;;;;;3.40;3.12;;;23.10;50.40;;;;;;625148;230;26877;-66
2022/08/04 01:05:53;;;;;;;3.60;3.30;;;23.00;50.40;;;;;;625237;230;26822;-66
2022/08/04 01:08:37;;;;;;;2.37;2.28;;;23.00;50.90;;;;;;624963;230;26600;-65
2022/08/04 01:11:14;;;;;;;3.40;3.20;;;22.90;50.80;;;;;;625289;230;26601;-66
2022/08/04 01:13:56;;;;;;;2.83;2.62;;;22.90;50.90;;;;;;624801;230;26655;-66
2022/08/04 01:16:23;;;;;;;2.90;2.70;;;22.90;50.90;;;;;;624882;230;26628;-65
2022/08/04 01:19:00;;;;;;;2.60;2.40;;;22.90;51.00;;;;;;625457;230;27131;-65
2022/08/04 01:21:44;;;;;;;3.03;2.70;;;22.90;51.10;;;;;;625893;230;26591;-66
2022/08/04 01:24:22;;;;;;;2.80;2.60;;;22.90;51.10;;;;;;619441;230;26585;-65
2022/08/04 01:26:50;;;;;;;2.75;2.50;;;22.90;51.10;;;;;;625883;230;26570;-65
2022/08/04 01:29:18;;;;;;;3.67;2.75;;;22.80;51.30;;;;;;625749;230;26569;-65
2022/08/04 01:32:04;;;;;;;2.85;2.62;;;22.70;51.40;;;;;;625605;230;26569;-65
2022/08/04 01:34:33;;;;;;;3.12;2.92;;;22.70;51.40;;;;;;619975;229;26618;-65
2022/08/04 01:37:03;;;;;;;3.30;3.00;;;22.70;51.50;;;;;;626868;229;26846;-65
2022/08/04 01:42:04;;;;;;;3.05;2.85;;;22.60;51.90;;;;;;626497;230;26561;-65
2022/08/04 01:44:32;;;;;;;2.90;2.70;;;22.60;52.30;;;;;;626137;230;26578;-65
2022/08/04 01:47:00;;;;;;;3.12;2.90;;;22.50;52.10;;;;;;626103;230;26561;-65
2022/08/04 01:49:27;;;;;;;2.85;2.67;;;22.50;52.20;;;;;;626081;230;26578;-65
2022/08/04 01:51:55;;;;;;;2.62;2.42;;;22.50;52.30;;;;;;626162;224;26553;-66
2022/08/04 01:54:23;;;;;;;5.60;3.35;;;22.50;52.40;;;;;;625790;230;26810;-66
2022/08/04 01:56:50;;;;;;;3.28;2.97;;;22.40;52.30;;;;;;625873;230;26527;-66
2022/08/04 01:59:17;;;;;;;4.97;3.10;;;22.40;52.40;;;;;;625844;230;26540;-65
2022/08/04 02:01:45;;;;;;;4.10;2.80;;;22.40;52.60;;;;;;625872;230;26517;-65
2022/08/04 02:04:14;;;;;;;4.12;3.10;;;22.30;52.60;;;;;;625807;230;26546;-65
2022/08/04 02:06:54;;;;;;;3.22;3.03;;;22.30;52.70;;;;;;625867;230;26568;-65
2022/08/04 02:09:23;;;;;;;3.33;3.10;;;22.30;52.70;;;;;;625849;230;26544;-65
2022/08/04 02:11:56;;;;;;;3.67;3.03;;;22.30;52.80;;;;;;625051;230;26588;-65
2022/08/04 02:16:57;;;;;;;3.08;2.80;;;22.20;52.80;;;;;;625603;230;26610;-65
2022/08/04 02:19:29;;;;;;;3.20;2.90;;;22.20;53.00;;;;;;625477;229;26824;-66
2022/08/04 02:21:56;;;;;;;3.08;2.87;;;22.10;53.00;;;;;;625442;230;26608;-65
2022/08/04 02:24:23;;;;;;;2.60;2.40;;;22.10;53.00;;;;;;625307;230;27213;-66
2022/08/04 02:26:51;;;;;;;2.80;2.60;;;22.10;53.10;;;;;;625545;230;26617;-65
2022/08/04 02:29:19;;;;;;;3.33;3.03;;;22.10;53.30;;;;;;625566;230;26597;-65
2022/08/04 02:31:53;;;;;;;3.55;2.97;;;22.10;53.40;;;;;;625528;230;26571;-65
2022/08/04 02:34:21;;;;;;;2.85;2.62;;;22.10;53.40;;;;;;625660;230;26599;-65
2022/08/04 02:36:49;;;;;;;2.87;2.67;;;22.10;53.40;;;;;;625644;230;26575;-65
2022/08/04 02:39:16;;;;;;;2.80;2.70;;;22.10;53.60;;;;;;625879;230;26837;-65
2022/08/04 02:41:43;;;;;;;3.22;3.00;;;22.00;53.60;;;;;;625549;230;26615;-65
2022/08/04 02:44:10;;;;;;;2.70;2.50;;;22.00;53.70;;;;;;625609;230;26844;-65
2022/08/04 02:46:38;;;;;;;4.85;2.97;;;22.00;53.80;;;;;;626916;227;26548;-65
2022/08/04 02:49:05;;;;;;;3.47;3.17;;;22.00;53.90;;;;;;626815;229;26778;-65
2022/08/04 02:51:33;;;;;;;3.42;2.90;;;21.90;53.80;;;;;;626430;229;26537;-65
2022/08/04 02:54:00;;;;;;;2.90;2.70;;;21.90;53.90;;;;;;626355;230;26592;-65
2022/08/04 02:56:28;;;;;;;2.78;2.58;;;21.80;54.00;;;;;;626029;227;26561;-66
2022/08/04 02:59:02;;;;;;;2.90;2.70;;;21.80;54.20;;;;;;626125;230;26554;-65
2022/08/04 03:01:29;;;;;;;3.03;2.83;;;21.70;54.10;;;;;;626050;230;26825;-66
2022/08/04 03:04:10;;;;;;;2.97;2.78;;;21.70;54.30;;;;;;626041;230;26590;-65
2022/08/04 03:06:46;;;;;;;2.65;2.47;;;21.70;54.60;;;;;;625054;230;26550;-65
2022/08/04 03:09:40;;;;;;;5.65;2.85;;;21.70;54.60;;;;;;625354;230;26783;-65
2022/08/04 03:12:39;;;;;;;2.90;2.70;;;21.60;54.70;;;;;;625441;230;26771;-65
2022/08/04 03:15:13;;;;;;;2.97;2.78;;;21.60;54.80;;;;;;625017;230;26529;-66
2022/08/04 03:17:46;;;;;;;3.00;2.80;;;21.50;55.30;;;;;;624788;230;26544;-65
2022/08/04 03:20:23;;;;;;;2.95;2.75;;;21.50;55.00;;;;;;624760;230;26559;-65
2022/08/04 03:23:20;;;;;;;3.30;3.00;;;21.50;54.80;;;;;;625225;230;26568;-65
2022/08/04 03:26:05;;;;;;;2.92;2.72;;;21.50;54.90;;;;;;625184;230;26595;-65
2022/08/04 03:28:39;;;;;;;3.28;2.97;;;21.50;55.30;;;;;;624582;230;26609;-65
2022/08/04 03:31:15;;;;;;;3.83;2.85;;;21.50;55.30;;;;;;624536;230;26837;-65
2022/08/04 03:33:48;;;;;;;3.25;2.67;;;21.50;55.30;;;;;;624556;230;27274;-65
2022/08/04 03:36:19;;;;;;;3.62;2.85;;;21.50;55.40;;;;;;624584;230;26598;-65
2022/08/04 03:38:57;;;;;;;3.62;2.97;;;21.50;55.40;;;;;;624192;230;26838;-65
2022/08/04 03:41:29;;;;;;;3.00;2.78;;;21.40;55.40;;;;;;625321;230;26634;-65
2022/08/04 03:44:17;;;;;;;3.03;2.83;;;21.50;55.40;;;;;;624753;230;26556;-65
2022/08/04 03:47:01;;;;;;;3.92;2.83;;;21.50;55.30;;;;;;624841;230;26610;-65
2022/08/04 03:49:52;;;;;;;3.12;2.83;;;21.50;55.50;;;;;;622810;230;26843;-65
2022/08/04 03:55:30;;;;;;;2.55;2.35;;;21.50;55.60;;;;;;618008;230;26624;-66
2022/08/04 03:58:13;;;;;;;4.28;2.97;;;21.40;55.80;;;;;;623846;228;26576;-66
2022/08/04 04:00:51;;;;;;;3.28;2.78;;;21.40;55.80;;;;;;625988;229;26621;-65
2022/08/04 04:03:24;;;;;;;3.10;2.90;;;21.40;56.00;;;;;;625784;229;26548;-65
2022/08/04 04:06:12;;;;;;;3.42;3.17;;;21.40;55.90;;;;;;626290;230;26561;-65
2022/08/04 04:08:42;;;;;;;4.78;3.15;;;21.40;55.90;;;;;;622908;230;26598;-65
2022/08/04 04:11:34;;;;;;;4.28;3.30;;;21.40;56.10;;;;;;625316;230;26810;-65
2022/08/04 04:14:23;;;;;;;3.40;3.05;;;21.50;56.60;;;;;;625352;230;26609;-65
2022/08/04 04:16:56;;;;;;;4.82;3.30;;;21.50;56.20;;;;;;624886;230;26570;-64
2022/08/04 04:19:44;;;;;;;3.70;3.15;;;21.50;56.10;;;;;;625467;230;26540;-64
2022/08/04 04:22:21;;;;;;;3.62;3.33;;;21.60;56.20;;;;;;617984;224;26833;-65
2022/08/04 04:24:49;;;;;;;4.45;3.40;;;21.50;56.00;;;;;;625894;230;26874;-65
2022/08/04 04:27:23;;;;;;;3.58;3.28;;;21.50;56.10;;;;;;624952;226;26514;-65
2022/08/04 04:30:00;;;;;;;3.60;2.92;;;21.60;56.50;;;;;;625079;227;26539;-65
2022/08/04 04:32:43;;;;;;;3.75;3.45;;;21.60;56.50;;;;;;625560;230;26534;-65
2022/08/04 04:35:31;;;;;;;3.78;3.47;;;21.60;56.30;;;;;;624772;230;26568;-65
2022/08/04 04:38:03;;;;;;;5.00;3.42;;;21.70;56.40;;;;;;625308;230;26622;-65
2022/08/04 04:40:39;;;;;;;4.03;3.72;;;21.70;56.40;;;;;;625113;229;26553;-65
2022/08/04 04:43:09;;;;;;;3.78;3.47;;;21.80;56.40;;;;;;624950;230;26625;-65
2022/08/04 04:46:13;;;;;;;3.83;3.53;;;21.80;56.30;;;;;;625394;230;26595;-65
2022/08/04 04:48:42;;;;;;;4.07;3.62;;;21.90;56.40;;;;;;625095;230;26599;-65
2022/08/04 04:51:14;;;;;;;3.85;3.55;;;22.00;56.40;;;;;;624806;230;26593;-65
2022/08/04 04:54:01;;;;;;;4.82;3.80;;;21.90;56.30;;;;;;625068;227;26606;-65
2022/08/04 04:56:40;;;;;;;3.85;3.55;;;22.00;56.40;;;;;;624340;224;26614;-65
2022/08/04 04:59:08;;;;;;;3.90;3.60;;;22.10;56.50;;;;;;625570;230;26559;-65
2022/08/04 05:01:38;;;;;;;3.30;3.10;;;22.10;56.30;;;;;;624572;227;26603;-64
2022/08/04 05:04:26;;;;;;;3.17;2.97;;;22.20;56.30;;;;;;625023;227;26566;-64
2022/08/04 05:07:17;;;;;;;3.75;3.10;;;22.20;56.30;;;;;;624813;230;26599;-64
2022/08/04 05:09:51;;;;;;;3.75;3.45;;;22.20;56.30;;;;;;626811;227;26580;-64
2022/08/04 05:12:49;;;;;;;3.75;3.45;;;22.30;56.30;;;;;;625785;229;26791;-64
2022/08/04 05:15:16;;;;;;;4.78;3.85;;;22.30;56.10;;;;;;623700;230;26572;-64
2022/08/04 05:17:44;;;;;;;3.78;3.47;;;22.40;56.10;;;;;;626339;230;26750;-64
2022/08/04 05:20:13;;;;;;;3.65;3.35;;;22.50;56.00;;;;;;625836;230;26585;-64
2022/08/04 05:22:43;;;;;;;3.95;3.65;;;22.60;56.20;;;;;;626010;230;26574;-64
2022/08/04 05:25:11;;;;;;;4.82;3.78;;;22.60;56.10;;;;;;625835;230;26846;-64
2022/08/04 05:27:39;;;;;;;4.90;3.70;;;22.70;56.10;;;;;;625724;230;26790;-66
2022/08/04 05:30:07;;;;;;;3.70;3.40;;;22.80;55.80;;;;;;625465;230;26550;-66
2022/08/04 05:32:36;;;;;;;4.12;3.62;;;22.90;55.60;;;;;;625896;230;26570;-67
2022/08/04 05:35:03;;;;;;;3.12;2.87;;;23.00;55.70;;;;;;625540;230;26529;-67
2022/08/04 05:37:30;;;;;;;9.05;3.90;;;23.20;55.60;;;;;;625759;230;26558;-64
2022/08/04 05:39:58;;;;;;;4.82;4.20;;;23.30;55.20;;;;;;625750;230;26508;-64
2022/08/04 05:42:26;;;;;;;4.50;3.92;;;23.20;55.10;;;;;;625690;230;26518;-66
2022/08/04 05:44:53;;;;;;;4.55;3.80;;;23.30;54.90;;;;;;625777;230;26630;-67
2022/08/04 05:47:21;;;;;;;4.45;4.00;;;23.50;54.90;;;;;;625594;230;26596;-67
2022/08/04 05:49:49;;;;;;;5.07;3.72;;;23.50;54.60;;;;;;625631;230;26609;-64
2022/08/04 05:52:17;;;;;;;6.93;4.40;;;23.60;54.70;;;;;;629387;225;26565;-67
2022/08/04 05:54:45;;;;;;;5.32;4.50;;;23.80;54.70;;;;;;631347;225;26557;-67
2022/08/04 05:57:12;;;;;;;9.52;4.47;;;23.80;54.40;;;;;;629948;226;26588;-66
2022/08/04 05:59:41;;;;;;;5.40;4.30;;;23.90;54.10;;;;;;624915;230;26565;-66
2022/08/04 06:02:07;;;;;;;6.18;4.22;;;24.20;54.10;;;;;;613710;234;26548;-66
2022/08/04 06:04:36;;;;;;;5.82;4.30;;;24.30;53.90;;;;;;612445;234;26590;-66
2022/08/04 06:07:03;;;;;;;6.80;4.50;;;24.20;53.80;;;;;;628579;226;26808;-65
2022/08/04 06:09:30;;;;;;;4.40;4.00;;;24.30;53.70;;;;;;625715;226;26835;-66
2022/08/04 06:11:59;;;;;;;5.07;4.57;;;24.40;53.40;;;;;;633581;226;26525;-66
2022/08/04 06:14:26;;;;;;;5.25;4.05;;;24.50;53.10;;;;;;625191;230;26625;-65
2022/08/04 06:16:53;;;;;;;5.75;4.70;;;24.70;53.10;;;;;;607121;234;26885;-66
2022/08/04 06:19:21;;;;;;;9.95;4.78;;;24.80;53.10;;;;;;618382;231;26625;-65
2022/08/04 06:21:48;;;;;;;7.03;4.28;;;24.90;53.00;;;;;;628007;224;26848;-66
2022/08/04 06:24:15;;;;;;;4.40;4.03;;;25.00;52.60;;;;;;625760;229;26553;-65
2022/08/04 06:26:42;;;;;;;5.10;3.60;;;25.10;52.60;;;;;;629949;225;26781;-65
2022/08/04 06:29:16;;;;;;;6.20;4.65;;;25.20;52.50;;;;;;631106;225;26522;-65
2022/08/04 06:31:45;;;;;;;7.18;4.22;;;25.40;52.10;;;;;;625968;227;26586;-67
2022/08/04 06:34:09;;;;;;;9.43;4.70;;;25.30;52.00;;;;;;630012;227;26581;-66
2022/08/04 06:36:37;;;;;;;5.05;4.55;;;25.50;52.10;;;;;;625334;227;26799;-66
2022/08/04 06:39:04;;;;;;;5.20;3.78;;;25.60;52.20;;;;;;628118;227;26553;-66
2022/08/04 06:41:31;;;;;;;5.68;4.40;;;25.70;51.60;;;;;;627903;227;26798;-66
2022/08/04 06:43:59;;;;;;;6.87;4.53;;;25.80;51.70;;;;;;631219;227;26618;-66
2022/08/04 06:46:26;;;;;;;4.65;4.20;;;26.00;51.60;;;;;;633358;227;26585;-65
2022/08/04 06:48:53;;;;;;;6.57;4.60;;;26.10;51.20;;;;;;630409;227;26793;-65
2022/08/04 06:51:20;;;;;;;11.38;4.43;;;26.20;51.30;;;;;;630801;227;26577;-65
2022/08/04 06:53:48;;;;;;;9.38;4.28;;;26.30;50.70;;;;;;626769;226;26842;-65
2022/08/04 06:56:15;;;;;;;8.13;4.70;;;26.40;50.20;;;;;;633871;226;26575;-65
2022/08/04 06:58:42;;;;;;;5.68;4.37;;;26.50;50.20;;;;;;627812;227;26826;-65
2022/08/04 07:01:09;;;;;;;5.65;4.20;;;26.60;50.10;;;;;;633860;226;26522;-65
2022/08/04 07:03:37;;;;;;;6.22;4.90;;;26.70;49.70;;;;;;635397;226;26856;-65
2022/08/04 07:06:04;;;;;;;8.10;5.12;;;26.80;49.20;;;;;;625830;226;26837;-65
2022/08/04 07:08:32;;;;;;;9.82;5.12;;;26.90;49.10;;;;;;605182;234;26547;-65
2022/08/04 07:11:01;;;;;;;8.80;5.95;;;27.10;48.60;;;;;;618367;230;26621;-64
2022/08/04 07:13:27;;;;;;;6.32;4.50;;;27.10;48.60;;;;;;616543;230;26604;-70
2022/08/04 07:15:55;;;;;;;7.93;5.40;;;27.30;48.20;;;;;;612848;233;26570;-67
2022/08/04 07:18:22;;;;;;;6.22;4.00;;;27.30;48.20;;;;;;627302;226;26540;-67
2022/08/04 07:20:49;;;;;;;11.25;5.00;;;27.50;48.20;;;;;;631377;226;26588;-67
2022/08/04 07:23:18;;;;;;;9.77;4.45;;;27.60;48.00;;;;;;626983;225;26794;-67
2022/08/04 07:25:44;;;;;;;5.53;4.05;;;27.60;47.90;;;;;;624918;230;26542;-67
2022/08/04 07:28:12;;;;;;;6.65;4.45;;;27.80;47.20;;;;;;624233;227;26636;-67
2022/08/04 07:30:40;;;;;;;10.00;5.72;;;27.90;47.10;;;;;;624733;227;26557;-66
2022/08/04 07:33:08;;;;;;;7.10;4.25;;;28.00;47.50;;;;;;626739;228;26610;-67
2022/08/04 07:35:36;;;;;;;5.45;4.53;;;28.10;47.30;;;;;;626851;229;26582;-67
2022/08/04 07:38:04;;;;;;;5.70;4.00;;;28.20;47.00;;;;;;626504;226;26561;-67
2022/08/04 07:40:32;;;;;;;5.95;3.85;;;28.30;46.90;;;;;;633878;225;26549;-66
2022/08/04 07:42:59;;;;;;;7.37;5.00;;;28.20;47.20;;;;;;626337;226;26557;-65
2022/08/04 07:45:26;;;;;;;63.05;16.42;;;28.30;46.50;;;;;;634579;225;26537;-66
2022/08/04 07:47:54;;;;;;;42.70;13.27;;;28.50;46.50;;;;;;638008;225;26497;-66
2022/08/04 07:50:22;;;;;;;53.28;14.70;;;28.60;46.50;;;;;;626981;227;26569;-67
2022/08/04 07:52:50;;;;;;;84.25;18.05;;;28.60;46.90;;;;;;629826;227;26582;-66
2022/08/04 07:55:18;;;;;;;55.38;13.68;;;28.70;46.40;;;;;;633252;225;26569;-66
2022/08/04 07:57:46;;;;;;;39.63;10.10;;;28.70;46.40;;;;;;627671;225;26544;-66
2022/08/04 08:00:13;;;;;;;7.50;4.32;;;28.80;46.30;;;;;;610969;234;26887;-66
2022/08/04 08:02:41;;;;;;;10.90;5.78;;;28.90;46.20;;;;;;613265;233;26630;-66
2022/08/04 08:05:10;;;;;;;8.07;5.22;;;29.00;46.20;;;;;;613693;234;26788;-66
2022/08/04 08:07:37;;;;;;;6.85;4.15;;;29.00;45.90;;;;;;626629;227;26595;-66
2022/08/04 08:10:06;;;;;;;7.28;4.00;;;29.10;46.00;;;;;;613712;234;26562;-66
2022/08/04 08:12:33;;;;;;;5.47;4.32;;;29.10;45.80;;;;;;611843;235;26603;-66
2022/08/04 08:15:00;;;;;;;11.12;5.12;;;29.20;45.60;;;;;;618531;230;26797;-66
2022/08/04 08:17:27;;;;;;;4.15;3.70;;;29.20;45.70;;;;;;616967;230;26554;-66
2022/08/04 08:19:54;;;;;;;4.53;3.85;;;29.30;45.70;;;;;;613175;235;26783;-66
2022/08/04 08:22:22;;;;;;;5.85;3.85;;;29.30;45.60;;;;;;625686;230;26572;-66
2022/08/04 08:24:49;;;;;;;9.88;4.82;;;29.30;45.20;;;;;;624962;230;27079;-66
2022/08/04 08:27:17;;;;;;;7.37;4.03;;;29.40;45.30;;;;;;632972;225;26493;-65
2022/08/04 08:29:45;;;;;;;6.47;4.60;;;29.50;45.30;;;;;;628342;225;26568;-65
2022/08/04 08:32:13;;;;;;;6.90;4.47;;;29.50;45.10;;;;;;630227;225;26553;-65
2022/08/04 08:34:41;;;;;;;5.45;4.12;;;29.60;45.20;;;;;;625173;224;26601;-65
2022/08/04 08:37:21;;;;;;;5.97;3.95;;;29.50;45.10;;;;;;625562;226;26592;-65
2022/08/04 08:39:57;;;;;;;4.10;3.70;;;29.60;44.80;;;;;;628305;226;26547;-65
2022/08/04 08:42:30;;;;;;;7.22;3.90;;;29.70;45.00;;;;;;626150;225;26621;-65
2022/08/04 08:45:15;;;;;;;4.87;3.40;;;29.80;45.00;;;;;;630376;226;26566;-65
2022/08/04 08:47:50;;;;;;;7.18;3.80;;;29.90;44.80;;;;;;626663;225;26598;-65
2022/08/04 08:50:51;;;;;;;4.07;3.42;;;29.80;44.70;;;;;;634211;225;26820;-65
2022/08/04 08:53:29;;;;;;;7.55;3.70;;;29.90;44.60;;;;;;624464;225;26632;-65
2022/08/04 08:56:11;;;;;;;4.07;3.72;;;30.00;44.40;;;;;;627290;226;26592;-66
2022/08/04 08:59:01;;;;;;;4.22;3.75;;;30.10;44.30;;;;;;627301;225;26892;-65
2022/08/04 09:01:51;;;;;;;6.43;3.45;;;30.10;44.30;;;;;;623466;225;26838;-65
2022/08/04 09:04:35;;;;;;;5.80;3.62;;;30.20;43.90;;;;;;620434;226;26844;-65
2022/08/04 09:07:32;;;;;;;4.40;3.20;;;30.20;43.70;;;;;;631391;225;26842;-66
2022/08/04 09:10:02;;;;;;;4.28;3.47;;;30.30;43.70;;;;;;618009;230;26802;-66
2022/08/04 09:13:04;;;;;;;4.43;3.25;;;30.30;43.70;;;;;;627438;225;26589;-66
2022/08/04 09:15:34;;;;;;;3.90;3.55;;;30.50;43.60;;;;;;628599;225;26566;-66
2022/08/04 09:18:20;;;;;;;4.97;2.97;;;30.50;43.60;;;;;;631132;226;26527;-66
2022/08/04 09:20:48;;;;;;;3.83;3.08;;;30.50;43.20;;;;;;624263;230;26829;-66
2022/08/04 09:23:38;;;;;;;5.12;3.70;;;30.60;43.30;;;;;;624407;230;26597;-66
2022/08/04 09:26:08;;;;;;;9.10;3.70;;;30.70;43.00;;;;;;617134;230;26643;-65
2022/08/04 09:28:53;;;;;;;5.62;3.33;;;30.70;42.90;;;;;;624124;230;26598;-66
2022/08/04 09:31:21;;;;;;;5.07;3.20;;;30.80;43.10;;;;;;624349;230;27086;-65
2022/08/04 09:33:50;;;;;;;5.35;3.65;;;30.80;43.00;;;;;;624569;230;26622;-66
2022/08/04 09:36:40;;;;;;;3.15;2.83;;;30.90;42.50;;;;;;624025;230;26588;-66
2022/08/04 09:39:27;;;;;;;5.93;3.42;;;30.80;42.50;;;;;;624652;230;26570;-66
2022/08/04 09:42:07;;;;;;;5.62;3.42;;;31.00;42.50;;;;;;618604;230;26784;-67
2022/08/04 09:44:40;;;;;;;5.07;3.35;;;31.00;42.30;;;;;;624424;230;26577;-66
2022/08/04 09:47:10;;;;;;;4.37;3.17;;;31.10;42.20;;;;;;625067;230;26540;-66
2022/08/04 09:49:48;;;;;;;5.00;3.47;;;31.10;42.30;;;;;;624672;230;26552;-65
2022/08/04 09:52:20;;;;;;;3.45;2.90;;;31.20;42.10;;;;;;624958;230;26590;-65
2022/08/04 09:54:51;;;;;;;6.62;3.17;;;31.30;42.50;;;;;;624451;225;26788;-65
2022/08/04 09:57:40;;;;;;;3.72;2.85;;;31.30;42.30;;;;;;626139;229;26840;-65
2022/08/04 10:00:09;;;;;;;3.40;3.10;;;31.30;42.30;;;;;;625339;230;27213;-65
2022/08/04 10:02:37;;;;;;;4.65;3.22;;;31.30;42.30;;;;;;625611;230;26601;-65
2022/08/04 10:05:04;;;;;;;4.30;3.40;;;31.40;42.20;;;;;;625196;230;26913;-65
2022/08/04 10:08:03;;;;;;;4.00;3.65;;;31.50;41.70;;;;;;625073;230;26546;-65
2022/08/04 10:10:36;;;;;;;3.85;3.55;;;31.50;41.70;;;;;;625005;230;26841;-65
2022/08/04 10:13:24;;;;;;;3.42;3.08;;;31.70;41.40;;;;;;624690;230;26568;-65
2022/08/04 10:15:58;;;;;;;6.50;3.40;;;31.70;41.40;;;;;;624263;230;26526;-65
2022/08/04 10:18:44;;;;;;;4.18;3.45;;;31.70;41.20;;;;;;624419;230;26551;-66
2022/08/04 10:21:26;;;;;;;3.25;3.05;;;31.70;41.20;;;;;;625038;230;26526;-66
2022/08/04 10:24:11;;;;;;;2.80;2.60;;;31.80;41.60;;;;;;624588;230;26546;-66
2022/08/04 10:26:42;;;;;;;3.78;3.58;;;31.90;41.30;;;;;;625118;230;26501;-66
2022/08/04 10:29:15;;;;;;;3.10;2.90;;;31.80;41.20;;;;;;625011;230;26506;-66
2022/08/04 10:31:47;;;;;;;4.62;2.97;;;31.90;40.80;;;;;;624572;230;26573;-66
2022/08/04 10:34:15;;;;;;;4.40;2.87;;;32.00;40.30;;;;;;624039;230;26845;-66
2022/08/04 10:36:48;;;;;;;4.20;2.70;;;32.10;40.40;;;;;;624486;229;26608;-66
2022/08/04 10:39:15;;;;;;;2.50;2.40;;;32.20;40.10;;;;;;624385;230;26585;-66
2022/08/04 10:41:46;;;;;;;3.25;2.35;;;32.30;39.60;;;;;;624596;230;26586;-66
2022/08/04 10:44:30;;;;;;;2.50;2.28;;;32.40;39.20;;;;;;624321;230;26577;-66
2022/08/04 10:46:57;;;;;;;3.28;2.60;;;32.50;39.10;;;;;;623624;230;26840;-66
2022/08/04 10:49:27;;;;;;;2.67;2.47;;;32.60;39.50;;;;;;624566;230;26605;-66
2022/08/04 10:51:54;;;;;;;2.42;2.22;;;32.60;38.80;;;;;;624225;230;26564;-66
2022/08/04 10:54:35;;;;;;;2.70;2.50;;;32.70;38.30;;;;;;624169;230;26606;-67
2022/08/04 10:57:07;;;;;;;2.50;2.30;;;32.90;38.10;;;;;;624674;230;26561;-66
2022/08/04 10:59:40;;;;;;;2.80;2.60;;;33.00;38.30;;;;;;625676;225;26652;-66
2022/08/04 11:02:27;;;;;;;2.67;2.22;;;33.00;38.00;;;;;;627330;225;26592;-66
2022/08/04 11:05:06;;;;;;;4.87;2.60;;;33.10;37.90;;;;;;631075;225;26604;-67
2022/08/04 11:07:32;;;;;;;2.45;2.10;;;33.10;38.50;;;;;;626948;225;26609;-63
2022/08/04 11:09:59;;;;;;;2.83;2.62;;;33.20;38.10;;;;;;628759;225;26758;-63
2022/08/04 11:12:26;;;;;;;3.42;2.47;;;33.40;37.50;;;;;;629652;225;26549;-63
2022/08/04 11:14:59;;;;;;;2.78;2.58;;;33.50;37.90;;;;;;630370;226;26951;-63
2022/08/04 11:17:27;;;;;;;4.28;2.67;;;33.50;37.90;;;;;;630132;227;26535;-64
2022/08/04 11:20:14;;;;;;;2.47;2.20;;;33.60;37.50;;;;;;635719;226;26561;-64
2022/08/04 11:22:41;;;;;;;2.37;2.17;;;33.60;37.50;;;;;;624906;227;26808;-64
2022/08/04 11:25:13;;;;;;;2.53;2.33;;;33.90;36.90;;;;;;627672;227;26556;-64
2022/08/04 11:27:48;;;;;;;2.30;2.12;;;34.10;36.50;;;;;;625034;230;26552;-64
2022/08/04 11:30:16;;;;;;;3.67;2.67;;;34.10;36.50;;;;;;633833;226;26563;-63
2022/08/04 11:32:43;;;;;;;3.97;2.50;;;34.20;36.70;;;;;;628975;227;26806;-63
2022/08/04 11:35:11;;;;;;;2.62;2.45;;;34.20;36.50;;;;;;634465;226;26636;-63
2022/08/04 11:37:41;;;;;;;3.00;2.80;;;34.20;36.40;;;;;;627458;226;26538;-63
2022/08/04 11:40:24;;;;;;;2.42;2.33;;;34.30;36.80;;;;;;634133;226;26832;-62
2022/08/04 11:42:55;;;;;;;2.45;2.28;;;34.70;35.30;;;;;;630245;226;26540;-63
2022/08/04 11:45:24;;;;;;;2.60;2.50;;;34.70;35.30;;;;;;627574;226;26869;-63
2022/08/04 11:47:54;;;;;;;2.45;2.25;;;34.90;35.50;;;;;;613305;234;26551;-63
2022/08/04 11:50:27;;;;;;;2.40;2.30;;;35.00;35.90;;;;;;613145;234;26619;-63
2022/08/04 11:52:55;;;;;;;2.92;2.72;;;35.20;35.60;;;;;;626299;226;26581;-63
2022/08/04 11:55:22;;;;;;;2.78;2.50;;;35.20;35.60;;;;;;609315;235;26528;-63
2022/08/04 11:57:49;;;;;;;4.32;2.58;;;35.30;35.10;;;;;;610266;235;26588;-63
2022/08/04 12:00:18;;;;;;;3.10;2.90;;;35.60;33.90;;;;;;625316;229;27385;-64
2022/08/04 12:02:50;;;;;;;6.25;3.22;;;35.80;33.90;;;;;;608245;234;26594;-63
2022/08/04 12:05:20;;;;;;;2.75;2.53;;;35.90;34.20;;;;;;633458;227;26584;-63
2022/08/04 12:07:57;;;;;;;2.17;2.05;;;36.10;34.00;;;;;;629786;227;26544;-64
2022/08/04 12:10:38;;;;;;;2.12;2.03;;;36.30;33.80;;;;;;623980;230;26824;-63
2022/08/04 12:13:16;;;;;;;1.67;1.58;;;36.20;33.70;;;;;;625131;230;26624;-63
2022/08/04 12:16:01;;;;;;;1.60;1.60;;;36.30;33.50;;;;;;624748;230;26604;-63
2022/08/04 12:18:33;;;;;;;2.22;2.12;;;36.50;33.20;;;;;;625305;228;26619;-63
2022/08/04 12:21:00;;;;;;;2.20;2.00;;;36.60;33.30;;;;;;607694;234;26545;-64
2022/08/04 12:23:30;;;;;;;2.85;2.60;;;36.50;32.20;;;;;;635205;226;26538;-64
2022/08/04 12:25:57;;;;;;;2.20;2.10;;;36.50;32.40;;;;;;626304;226;26811;-64
2022/08/04 12:28:33;;;;;;;2.72;2.50;;;36.60;32.60;;;;;;625354;230;26505;-64
2022/08/04 12:31:00;;;;;;;2.45;2.28;;;36.80;32.30;;;;;;607086;235;26571;-64
2022/08/04 12:33:27;;;;;;;2.17;2.08;;;37.00;32.40;;;;;;634928;227;26577;-64
2022/08/04 12:35:55;;;;;;;2.28;2.10;;;37.10;31.90;;;;;;633491;227;26824;-64
2022/08/04 12:38:23;;;;;;;2.72;2.42;;;37.10;31.60;;;;;;625057;230;26580;-64
2022/08/04 12:40:51;;;;;;;5.05;2.30;;;37.30;32.00;;;;;;630540;226;26538;-64
2022/08/04 12:43:25;;;;;;;2.30;2.20;;;37.40;31.90;;;;;;628983;225;26578;-64
2022/08/04 12:45:53;;;;;;;3.37;2.30;;;37.40;31.90;;;;;;631253;227;26581;-64
2022/08/04 12:48:20;;;;;;;2.60;2.50;;;37.70;32.10;;;;;;604064;236;26892;-64
2022/08/04 12:50:57;;;;;;;2.60;2.40;;;38.00;31.70;;;;;;630493;227;26570;-64
2022/08/04 12:53:26;;;;;;;2.42;2.33;;;38.10;31.80;;;;;;628726;225;27162;-64
2022/08/04 12:55:53;;;;;;;2.62;2.42;;;38.20;31.40;;;;;;630367;226;26805;-64
2022/08/04 12:58:21;;;;;;;2.25;2.15;;;38.40;31.20;;;;;;632713;226;26540;-63
2022/08/04 13:00:56;;;;;;;2.20;2.10;;;38.60;30.90;;;;;;630080;226;26571;-64
2022/08/04 13:03:23;;;;;;;2.83;2.62;;;39.00;30.00;;;;;;625710;226;26601;-64
2022/08/04 13:05:51;;;;;;;2.12;1.80;;;39.30;29.40;;;;;;625376;226;26596;-63
2022/08/04 13:08:19;;;;;;;2.40;2.25;;;39.60;29.90;;;;;;632733;226;26550;-64
2022/08/04 13:10:46;;;;;;;3.00;2.40;;;39.50;29.80;;;;;;613704;234;26632;-64
2022/08/04 13:13:14;;;;;;;2.47;2.37;;;39.80;30.10;;;;;;611794;228;26664;-64
2022/08/04 13:15:42;;;;;;;2.72;2.55;;;40.40;29.60;;;;;;612370;232;26568;-64
2022/08/04 13:18:11;;;;;;;3.25;2.55;;;40.60;29.50;;;;;;614391;233;26536;-64
2022/08/04 13:20:38;;;;;;;2.78;2.20;;;40.50;29.40;;;;;;612928;234;26622;-64